sensor_id;sensor_type;location;lat;lon;timestamp;temperature;humidity
52044;DHT22;38053;53.100;6.078;2023-11-22T00:00:29;5.30;99.90
52044;DHT22;38053;53.100;6.078;2023-11-22T00:02:55;5.30;99.90
52044;DHT22;38053;53.100;6.078;2023-11-22T00:05:21;5.30;99.90
52044;DHT22;38053;53.100;6.078;2023-11-22T00:07:46;5.30;99.90
52044;DHT22;38053;53.100;6.078;2023-11-22T00:10:13;5.30;99.90
52044;DHT22;38053;53.100;6.078;2023-11-22T00:12:39;5.20;99.90
52044;DHT22;38053;53.100;6.078;2023-11-22T00:15:06;5.20;99.90
52044;DHT22;38053;53.100;6.078;2023-11-22T00:17:32;5.20;99.90
52044;DHT22;38053;53.100;6.078;2023-11-22T00:19:59;5.20;99.90
52044;DHT22;38053;53.100;6.078;2023-11-22T00:22:27;5.20;99.90
52044;DHT22;38053;53.100;6.078;2023-11-22T00:24:53;5.20;99.90
52044;DHT22;38053;53.100;6.078;2023-11-22T00:27:19;5.20;99.90
52044;DHT22;38053;53.100;6.078;2023-11-22T00:29:45;5.20;99.90
52044;DHT22;38053;53.100;6.078;2023-11-22T00:32:14;5.10;99.90
52044;DHT22;38053;53.100;6.078;2023-11-22T00:34:40;5.10;99.90
52044;DHT22;38053;53.100;6.078;2023-11-22T00:37:05;5.10;99.90
52044;DHT22;38053;53.100;6.078;2023-11-22T00:39:31;5.10;99.90
52044;DHT22;38053;53.100;6.078;2023-11-22T00:41:57;5.00;99.90
52044;DHT22;38053;53.100;6.078;2023-11-22T00:44:23;5.00;99.90
52044;DHT22;38053;53.100;6.078;2023-11-22T00:46:48;5.00;99.90
52044;DHT22;38053;53.100;6.078;2023-11-22T00:49:14;5.00;99.90
52044;DHT22;38053;53.100;6.078;2023-11-22T00:51:40;4.90;99.90
52044;DHT22;38053;53.100;6.078;2023-11-22T00:54:05;4.90;99.90
52044;DHT22;38053;53.100;6.078;2023-11-22T00:56:31;4.80;99.90
52044;DHT22;38053;53.100;6.078;2023-11-22T00:58:57;4.80;99.90
52044;DHT22;38053;53.100;6.078;2023-11-22T01:01:25;4.80;99.90
52044;DHT22;38053;53.100;6.078;2023-11-22T01:03:51;4.80;99.90
52044;DHT22;38053;53.100;6.078;2023-11-22T01:06:17;4.80;99.90
52044;DHT22;38053;53.100;6.078;2023-11-22T01:08:45;4.80;99.90
52044;DHT22;38053;53.100;6.078;2023-11-22T01:11:13;4.80;99.90
52044;DHT22;38053;53.100;6.078;2023-11-22T01:13:39;4.80;99.90
52044;DHT22;38053;53.100;6.078;2023-11-22T01:16:10;4.80;99.90
52044;DHT22;38053;53.100;6.078;2023-11-22T01:18:36;4.80;99.90
52044;DHT22;38053;53.100;6.078;2023-11-22T01:21:02;4.80;99.90
52044;DHT22;38053;53.100;6.078;2023-11-22T01:23:30;4.80;99.90
52044;DHT22;38053;53.100;6.078;2023-11-22T01:25:55;4.80;99.90
52044;DHT22;38053;53.100;6.078;2023-11-22T01:28:21;4.80;99.90
52044;DHT22;38053;53.100;6.078;2023-11-22T01:30:47;4.80;99.90
52044;DHT22;38053;53.100;6.078;2023-11-22T01:33:15;4.70;99.90
52044;DHT22;38053;53.100;6.078;2023-11-22T01:35:41;4.80;99.90
52044;DHT22;38053;53.100;6.078;2023-11-22T01:38:07;4.80;99.90
52044;DHT22;38053;53.100;6.078;2023-11-22T01:40:33;4.80;99.90
52044;DHT22;38053;53.100;6.078;2023-11-22T01:42:59;4.80;99.90
52044;DHT22;38053;53.100;6.078;2023-11-22T01:45:25;4.80;99.90
52044;DHT22;38053;53.100;6.078;2023-11-22T01:47:53;4.80;99.90
52044;DHT22;38053;53.100;6.078;2023-11-22T01:50:19;4.80;99.90
52044;DHT22;38053;53.100;6.078;2023-11-22T01:52:45;4.80;99.90
52044;DHT22;38053;53.100;6.078;2023-11-22T01:55:12;4.80;99.90
52044;DHT22;38053;53.100;6.078;2023-11-22T01:57:39;4.80;99.90
52044;DHT22;38053;53.100;6.078;2023-11-22T02:00:05;4.80;99.90
52044;DHT22;38053;53.100;6.078;2023-11-22T02:02:36;4.80;99.90
52044;DHT22;38053;53.100;6.078;2023-11-22T02:05:01;4.80;99.90
52044;DHT22;38053;53.100;6.078;2023-11-22T02:07:27;4.70;99.90
52044;DHT22;38053;53.100;6.078;2023-11-22T02:09:53;4.70;99.90
52044;DHT22;38053;53.100;6.078;2023-11-22T02:12:19;4.70;99.90
52044;DHT22;38053;53.100;6.078;2023-11-22T02:14:45;4.70;99.90
52044;DHT22;38053;53.100;6.078;2023-11-22T02:17:12;4.70;99.90
52044;DHT22;38053;53.100;6.078;2023-11-22T02:19:38;4.70;99.90
52044;DHT22;38053;53.100;6.078;2023-11-22T02:22:03;4.60;99.90
52044;DHT22;38053;53.100;6.078;2023-11-22T02:24:29;4.60;99.90
52044;DHT22;38053;53.100;6.078;2023-11-22T02:26:55;4.60;99.90
52044;DHT22;38053;53.100;6.078;2023-11-22T02:29:21;4.50;99.90
52044;DHT22;38053;53.100;6.078;2023-11-22T02:31:50;4.50;99.90
52044;DHT22;38053;53.100;6.078;2023-11-22T02:34:15;4.40;99.90
52044;DHT22;38053;53.100;6.078;2023-11-22T02:36:44;4.30;99.90
52044;DHT22;38053;53.100;6.078;2023-11-22T02:39:10;4.30;99.90
52044;DHT22;38053;53.100;6.078;2023-11-22T02:41:36;4.30;99.90
52044;DHT22;38053;53.100;6.078;2023-11-22T02:44:02;4.20;99.90
52044;DHT22;38053;53.100;6.078;2023-11-22T02:46:28;4.10;99.90
52044;DHT22;38053;53.100;6.078;2023-11-22T02:48:56;4.00;99.90
52044;DHT22;38053;53.100;6.078;2023-11-22T02:51:22;4.00;99.90
52044;DHT22;38053;53.100;6.078;2023-11-22T02:53:48;3.90;99.90
52044;DHT22;38053;53.100;6.078;2023-11-22T02:56:15;3.80;99.90
52044;DHT22;38053;53.100;6.078;2023-11-22T02:58:41;3.80;99.90
52044;DHT22;38053;53.100;6.078;2023-11-22T03:01:07;3.70;99.90
52044;DHT22;38053;53.100;6.078;2023-11-22T03:03:34;3.60;99.90
52044;DHT22;38053;53.100;6.078;2023-11-22T03:06:00;3.60;99.90
52044;DHT22;38053;53.100;6.078;2023-11-22T03:08:26;3.50;99.90
52044;DHT22;38053;53.100;6.078;2023-11-22T03:10:53;3.40;99.90
52044;DHT22;38053;53.100;6.078;2023-11-22T03:13:18;3.40;99.90
52044;DHT22;38053;53.100;6.078;2023-11-22T03:15:44;3.30;99.90
52044;DHT22;38053;53.100;6.078;2023-11-22T03:18:10;3.20;99.90
52044;DHT22;38053;53.100;6.078;2023-11-22T03:20:37;3.20;99.90
52044;DHT22;38053;53.100;6.078;2023-11-22T03:23:04;3.20;99.90
52044;DHT22;38053;53.100;6.078;2023-11-22T03:25:30;3.10;99.90
52044;DHT22;38053;53.100;6.078;2023-11-22T03:27:56;3.10;99.90
52044;DHT22;38053;53.100;6.078;2023-11-22T03:30:22;3.00;99.90
52044;DHT22;38053;53.100;6.078;2023-11-22T03:32:47;3.00;99.90
52044;DHT22;38053;53.100;6.078;2023-11-22T03:35:15;2.90;99.90
52044;DHT22;38053;53.100;6.078;2023-11-22T03:37:42;2.90;99.90
52044;DHT22;38053;53.100;6.078;2023-11-22T03:40:08;2.90;99.90
52044;DHT22;38053;53.100;6.078;2023-11-22T03:42:38;2.80;99.90
52044;DHT22;38053;53.100;6.078;2023-11-22T03:45:05;2.80;99.90
52044;DHT22;38053;53.100;6.078;2023-11-22T03:47:31;2.70;99.90
52044;DHT22;38053;53.100;6.078;2023-11-22T03:49:58;2.70;99.90
52044;DHT22;38053;53.100;6.078;2023-11-22T03:52:25;2.60;99.90
52044;DHT22;38053;53.100;6.078;2023-11-22T03:54:52;2.60;99.90
52044;DHT22;38053;53.100;6.078;2023-11-22T03:57:18;2.60;99.90
52044;DHT22;38053;53.100;6.078;2023-11-22T03:59:44;2.50;99.90
52044;DHT22;38053;53.100;6.078;2023-11-22T04:02:10;2.50;99.90
52044;DHT22;38053;53.100;6.078;2023-11-22T04:04:37;2.40;99.90
52044;DHT22;38053;53.100;6.078;2023-11-22T04:07:05;2.40;99.90
52044;DHT22;38053;53.100;6.078;2023-11-22T04:09:31;2.30;99.90
52044;DHT22;38053;53.100;6.078;2023-11-22T04:11:57;2.30;99.90
52044;DHT22;38053;53.100;6.078;2023-11-22T04:14:23;2.20;99.90
52044;DHT22;38053;53.100;6.078;2023-11-22T04:16:49;2.20;99.90
52044;DHT22;38053;53.100;6.078;2023-11-22T04:19:14;2.20;99.90
52044;DHT22;38053;53.100;6.078;2023-11-22T04:21:40;2.20;99.90
52044;DHT22;38053;53.100;6.078;2023-11-22T04:24:06;2.20;99.90
52044;DHT22;38053;53.100;6.078;2023-11-22T04:26:32;2.20;99.90
52044;DHT22;38053;53.100;6.078;2023-11-22T04:28:58;2.20;99.90
52044;DHT22;38053;53.100;6.078;2023-11-22T04:31:24;2.20;99.90
52044;DHT22;38053;53.100;6.078;2023-11-22T04:33:50;2.20;99.90
52044;DHT22;38053;53.100;6.078;2023-11-22T04:36:16;2.20;99.90
52044;DHT22;38053;53.100;6.078;2023-11-22T04:38:42;2.20;99.90
52044;DHT22;38053;53.100;6.078;2023-11-22T04:41:08;2.20;99.90
52044;DHT22;38053;53.100;6.078;2023-11-22T04:43:34;2.20;99.90
52044;DHT22;38053;53.100;6.078;2023-11-22T04:45:59;2.20;99.90
52044;DHT22;38053;53.100;6.078;2023-11-22T04:48:25;2.20;99.90
52044;DHT22;38053;53.100;6.078;2023-11-22T04:50:51;2.30;99.90
52044;DHT22;38053;53.100;6.078;2023-11-22T04:53:18;2.30;99.90
52044;DHT22;38053;53.100;6.078;2023-11-22T04:55:44;2.30;99.90
52044;DHT22;38053;53.100;6.078;2023-11-22T04:58:10;2.40;99.90
52044;DHT22;38053;53.100;6.078;2023-11-22T05:00:36;2.40;99.90
52044;DHT22;38053;53.100;6.078;2023-11-22T05:03:01;2.40;99.90
52044;DHT22;38053;53.100;6.078;2023-11-22T05:05:27;2.40;99.90
52044;DHT22;38053;53.100;6.078;2023-11-22T05:07:53;2.40;99.90
52044;DHT22;38053;53.100;6.078;2023-11-22T05:10:18;2.50;99.90
52044;DHT22;38053;53.100;6.078;2023-11-22T05:12:44;2.50;99.90
52044;DHT22;38053;53.100;6.078;2023-11-22T05:15:10;2.60;99.90
52044;DHT22;38053;53.100;6.078;2023-11-22T05:17:36;2.50;99.90
52044;DHT22;38053;53.100;6.078;2023-11-22T05:20:01;2.60;99.90
52044;DHT22;38053;53.100;6.078;2023-11-22T05:22:27;2.60;99.90
52044;DHT22;38053;53.100;6.078;2023-11-22T05:24:53;2.60;99.90
52044;DHT22;38053;53.100;6.078;2023-11-22T05:27:19;2.60;99.90
52044;DHT22;38053;53.100;6.078;2023-11-22T05:29:44;2.60;99.90
52044;DHT22;38053;53.100;6.078;2023-11-22T05:32:10;2.60;99.90
52044;DHT22;38053;53.100;6.078;2023-11-22T05:34:36;2.70;99.90
52044;DHT22;38053;53.100;6.078;2023-11-22T05:37:03;2.60;99.90
52044;DHT22;38053;53.100;6.078;2023-11-22T05:39:29;2.60;99.90
52044;DHT22;38053;53.100;6.078;2023-11-22T05:41:54;2.60;99.90
52044;DHT22;38053;53.100;6.078;2023-11-22T05:44:22;2.60;99.90
52044;DHT22;38053;53.100;6.078;2023-11-22T05:46:47;2.70;99.90
52044;DHT22;38053;53.100;6.078;2023-11-22T05:49:13;2.60;99.90
52044;DHT22;38053;53.100;6.078;2023-11-22T05:51:39;2.60;99.90
52044;DHT22;38053;53.100;6.078;2023-11-22T05:54:04;2.60;99.90
52044;DHT22;38053;53.100;6.078;2023-11-22T05:56:30;2.60;99.90
52044;DHT22;38053;53.100;6.078;2023-11-22T05:58:57;2.70;99.90
52044;DHT22;38053;53.100;6.078;2023-11-22T06:01:23;2.70;99.90
52044;DHT22;38053;53.100;6.078;2023-11-22T06:03:49;2.70;99.90
52044;DHT22;38053;53.100;6.078;2023-11-22T06:06:14;2.70;99.90
52044;DHT22;38053;53.100;6.078;2023-11-22T06:08:40;2.70;99.90
52044;DHT22;38053;53.100;6.078;2023-11-22T06:11:06;2.70;99.90
52044;DHT22;38053;53.100;6.078;2023-11-22T06:13:33;2.70;99.90
52044;DHT22;38053;53.100;6.078;2023-11-22T06:15:58;2.70;99.90
52044;DHT22;38053;53.100;6.078;2023-11-22T06:18:24;2.60;99.90
52044;DHT22;38053;53.100;6.078;2023-11-22T06:20:55;2.70;99.90
52044;DHT22;38053;53.100;6.078;2023-11-22T06:23:21;2.60;99.90
52044;DHT22;38053;53.100;6.078;2023-11-22T06:25:47;2.60;99.90
52044;DHT22;38053;53.100;6.078;2023-11-22T06:28:13;2.60;99.90
52044;DHT22;38053;53.100;6.078;2023-11-22T06:30:39;2.60;99.90
52044;DHT22;38053;53.100;6.078;2023-11-22T06:33:04;2.60;99.90
52044;DHT22;38053;53.100;6.078;2023-11-22T06:35:30;2.60;99.90
52044;DHT22;38053;53.100;6.078;2023-11-22T06:37:56;2.60;99.90
52044;DHT22;38053;53.100;6.078;2023-11-22T06:40:21;2.60;99.90
52044;DHT22;38053;53.100;6.078;2023-11-22T06:42:48;2.60;99.90
52044;DHT22;38053;53.100;6.078;2023-11-22T06:45:14;2.60;99.90
52044;DHT22;38053;53.100;6.078;2023-11-22T06:47:43;2.60;99.90
52044;DHT22;38053;53.100;6.078;2023-11-22T06:50:10;2.60;99.90
52044;DHT22;38053;53.100;6.078;2023-11-22T06:52:36;2.60;99.90
52044;DHT22;38053;53.100;6.078;2023-11-22T06:55:04;2.60;99.90
52044;DHT22;38053;53.100;6.078;2023-11-22T06:57:30;2.60;99.90
52044;DHT22;38053;53.100;6.078;2023-11-22T06:59:56;2.60;99.90
52044;DHT22;38053;53.100;6.078;2023-11-22T07:02:22;2.60;99.90
52044;DHT22;38053;53.100;6.078;2023-11-22T07:04:48;2.60;99.90
52044;DHT22;38053;53.100;6.078;2023-11-22T07:07:14;2.60;99.90
52044;DHT22;38053;53.100;6.078;2023-11-22T07:09:44;2.60;99.90
52044;DHT22;38053;53.100;6.078;2023-11-22T07:12:10;2.50;99.90
52044;DHT22;38053;53.100;6.078;2023-11-22T07:14:36;2.50;99.90
52044;DHT22;38053;53.100;6.078;2023-11-22T07:17:02;2.50;99.90
52044;DHT22;38053;53.100;6.078;2023-11-22T07:19:28;2.50;99.90
52044;DHT22;38053;53.100;6.078;2023-11-22T07:21:54;2.40;99.90
52044;DHT22;38053;53.100;6.078;2023-11-22T07:24:20;2.50;99.90
52044;DHT22;38053;53.100;6.078;2023-11-22T07:26:46;2.50;99.90
52044;DHT22;38053;53.100;6.078;2023-11-22T07:29:12;2.50;99.90
52044;DHT22;38053;53.100;6.078;2023-11-22T07:31:39;2.50;99.90
52044;DHT22;38053;53.100;6.078;2023-11-22T07:34:05;2.50;99.90
52044;DHT22;38053;53.100;6.078;2023-11-22T07:36:31;2.50;99.90
52044;DHT22;38053;53.100;6.078;2023-11-22T07:38:57;2.50;99.90
52044;DHT22;38053;53.100;6.078;2023-11-22T07:41:23;2.60;99.90
52044;DHT22;38053;53.100;6.078;2023-11-22T07:43:49;2.60;99.90
52044;DHT22;38053;53.100;6.078;2023-11-22T07:46:15;2.60;99.90
52044;DHT22;38053;53.100;6.078;2023-11-22T07:48:42;2.70;99.90
52044;DHT22;38053;53.100;6.078;2023-11-22T07:51:08;2.70;99.90
52044;DHT22;38053;53.100;6.078;2023-11-22T07:53:34;2.70;99.90
52044;DHT22;38053;53.100;6.078;2023-11-22T07:56:03;2.80;99.90
52044;DHT22;38053;53.100;6.078;2023-11-22T07:58:33;2.80;99.90
52044;DHT22;38053;53.100;6.078;2023-11-22T08:00:59;2.80;99.90
52044;DHT22;38053;53.100;6.078;2023-11-22T08:03:25;2.80;99.90
52044;DHT22;38053;53.100;6.078;2023-11-22T08:05:53;2.90;99.90
52044;DHT22;38053;53.100;6.078;2023-11-22T08:08:22;2.90;99.90
52044;DHT22;38053;53.100;6.078;2023-11-22T08:10:48;3.00;99.90
52044;DHT22;38053;53.100;6.078;2023-11-22T08:13:17;3.00;99.90
52044;DHT22;38053;53.100;6.078;2023-11-22T08:15:45;3.00;99.90
52044;DHT22;38053;53.100;6.078;2023-11-22T08:18:13;3.00;99.90
52044;DHT22;38053;53.100;6.078;2023-11-22T08:20:38;3.10;99.90
52044;DHT22;38053;53.100;6.078;2023-11-22T08:23:04;3.10;99.90
52044;DHT22;38053;53.100;6.078;2023-11-22T08:25:32;3.10;99.90
52044;DHT22;38053;53.100;6.078;2023-11-22T08:27:58;3.10;99.90
52044;DHT22;38053;53.100;6.078;2023-11-22T08:30:23;3.10;99.90
52044;DHT22;38053;53.100;6.078;2023-11-22T08:32:49;3.10;99.90
52044;DHT22;38053;53.100;6.078;2023-11-22T08:35:19;3.10;99.90
52044;DHT22;38053;53.100;6.078;2023-11-22T08:37:49;3.10;99.90
52044;DHT22;38053;53.100;6.078;2023-11-22T08:40:16;3.10;99.90
52044;DHT22;38053;53.100;6.078;2023-11-22T08:42:49;3.20;99.90
52044;DHT22;38053;53.100;6.078;2023-11-22T08:45:15;3.20;99.90
52044;DHT22;38053;53.100;6.078;2023-11-22T08:47:41;3.20;99.90
52044;DHT22;38053;53.100;6.078;2023-11-22T08:50:08;3.20;99.90
52044;DHT22;38053;53.100;6.078;2023-11-22T08:52:39;3.20;99.90
52044;DHT22;38053;53.100;6.078;2023-11-22T08:55:07;3.20;99.90
52044;DHT22;38053;53.100;6.078;2023-11-22T08:57:36;3.30;99.90
52044;DHT22;38053;53.100;6.078;2023-11-22T09:00:03;3.30;99.90
52044;DHT22;38053;53.100;6.078;2023-11-22T09:02:33;3.30;99.90
52044;DHT22;38053;53.100;6.078;2023-11-22T09:05:02;3.30;99.90
52044;DHT22;38053;53.100;6.078;2023-11-22T09:07:31;3.40;99.90
52044;DHT22;38053;53.100;6.078;2023-11-22T09:09:56;3.40;99.90
52044;DHT22;38053;53.100;6.078;2023-11-22T09:12:23;3.40;99.90
52044;DHT22;38053;53.100;6.078;2023-11-22T09:14:49;3.40;99.90
52044;DHT22;38053;53.100;6.078;2023-11-22T09:17:15;3.50;99.90
52044;DHT22;38053;53.100;6.078;2023-11-22T09:19:40;3.60;99.90
52044;DHT22;38053;53.100;6.078;2023-11-22T09:22:06;3.60;99.90
52044;DHT22;38053;53.100;6.078;2023-11-22T09:24:32;3.60;99.90
52044;DHT22;38053;53.100;6.078;2023-11-22T09:26:58;3.60;99.90
52044;DHT22;38053;53.100;6.078;2023-11-22T09:29:26;3.60;99.90
52044;DHT22;38053;53.100;6.078;2023-11-22T09:31:52;3.70;99.90
52044;DHT22;38053;53.100;6.078;2023-11-22T09:34:18;3.70;99.90
52044;DHT22;38053;53.100;6.078;2023-11-22T09:36:43;3.70;99.90
52044;DHT22;38053;53.100;6.078;2023-11-22T09:39:09;3.80;99.90
52044;DHT22;38053;53.100;6.078;2023-11-22T09:41:36;3.80;99.90
52044;DHT22;38053;53.100;6.078;2023-11-22T09:44:01;3.80;99.90
52044;DHT22;38053;53.100;6.078;2023-11-22T09:46:27;3.90;99.90
52044;DHT22;38053;53.100;6.078;2023-11-22T09:48:56;3.90;99.90
52044;DHT22;38053;53.100;6.078;2023-11-22T09:51:31;3.90;99.90
52044;DHT22;38053;53.100;6.078;2023-11-22T09:54:04;4.00;99.90
52044;DHT22;38053;53.100;6.078;2023-11-22T09:56:33;4.00;99.90
52044;DHT22;38053;53.100;6.078;2023-11-22T09:59:03;4.10;99.90
52044;DHT22;38053;53.100;6.078;2023-11-22T10:01:30;4.10;99.90
52044;DHT22;38053;53.100;6.078;2023-11-22T10:04:05;4.20;99.90
52044;DHT22;38053;53.100;6.078;2023-11-22T10:06:33;4.20;99.90
52044;DHT22;38053;53.100;6.078;2023-11-22T10:09:04;4.30;99.90
52044;DHT22;38053;53.100;6.078;2023-11-22T10:11:36;4.30;99.90
52044;DHT22;38053;53.100;6.078;2023-11-22T10:14:09;4.40;99.90
52044;DHT22;38053;53.100;6.078;2023-11-22T10:16:35;4.40;99.90
52044;DHT22;38053;53.100;6.078;2023-11-22T10:19:00;4.40;99.90
52044;DHT22;38053;53.100;6.078;2023-11-22T10:21:28;4.50;99.90
52044;DHT22;38053;53.100;6.078;2023-11-22T10:23:57;4.50;99.90
52044;DHT22;38053;53.100;6.078;2023-11-22T10:26:23;4.50;99.90
52044;DHT22;38053;53.100;6.078;2023-11-22T10:28:53;4.50;99.90
52044;DHT22;38053;53.100;6.078;2023-11-22T10:31:19;4.60;99.90
52044;DHT22;38053;53.100;6.078;2023-11-22T10:33:47;4.60;99.90
52044;DHT22;38053;53.100;6.078;2023-11-22T10:36:14;4.60;99.90
52044;DHT22;38053;53.100;6.078;2023-11-22T10:38:41;4.60;99.90
52044;DHT22;38053;53.100;6.078;2023-11-22T10:41:11;4.70;99.90
52044;DHT22;38053;53.100;6.078;2023-11-22T10:43:40;4.80;99.90
52044;DHT22;38053;53.100;6.078;2023-11-22T10:46:08;4.90;99.90
52044;DHT22;38053;53.100;6.078;2023-11-22T10:48:39;4.90;99.90
52044;DHT22;38053;53.100;6.078;2023-11-22T10:51:05;5.00;99.90
52044;DHT22;38053;53.100;6.078;2023-11-22T10:53:33;5.00;99.90
52044;DHT22;38053;53.100;6.078;2023-11-22T10:56:13;5.00;99.90
52044;DHT22;38053;53.100;6.078;2023-11-22T10:58:51;4.90;99.90
52044;DHT22;38053;53.100;6.078;2023-11-22T11:01:18;5.00;99.90
52044;DHT22;38053;53.100;6.078;2023-11-22T11:04:15;5.00;99.90
52044;DHT22;38053;53.100;6.078;2023-11-22T11:06:44;5.00;99.90
52044;DHT22;38053;53.100;6.078;2023-11-22T11:09:12;5.10;99.90
52044;DHT22;38053;53.100;6.078;2023-11-22T11:11:41;5.20;99.90
52044;DHT22;38053;53.100;6.078;2023-11-22T11:14:08;5.30;99.90
52044;DHT22;38053;53.100;6.078;2023-11-22T11:16:38;5.30;99.90
52044;DHT22;38053;53.100;6.078;2023-11-22T11:19:07;5.40;99.90
52044;DHT22;38053;53.100;6.078;2023-11-22T11:21:35;5.40;99.90
52044;DHT22;38053;53.100;6.078;2023-11-22T11:24:01;5.50;99.90
52044;DHT22;38053;53.100;6.078;2023-11-22T11:26:32;5.50;99.90
52044;DHT22;38053;53.100;6.078;2023-11-22T11:29:00;5.50;99.90
52044;DHT22;38053;53.100;6.078;2023-11-22T11:31:31;5.50;99.90
52044;DHT22;38053;53.100;6.078;2023-11-22T11:33:57;5.60;99.90
52044;DHT22;38053;53.100;6.078;2023-11-22T11:36:27;5.60;99.90
52044;DHT22;38053;53.100;6.078;2023-11-22T11:38:55;5.70;99.90
52044;DHT22;38053;53.100;6.078;2023-11-22T11:41:31;5.80;99.90
52044;DHT22;38053;53.100;6.078;2023-11-22T11:44:06;6.00;99.90
52044;DHT22;38053;53.100;6.078;2023-11-22T11:46:32;6.00;99.90
52044;DHT22;38053;53.100;6.078;2023-11-22T11:48:58;6.10;99.90
52044;DHT22;38053;53.100;6.078;2023-11-22T11:51:26;6.10;99.90
52044;DHT22;38053;53.100;6.078;2023-11-22T11:53:54;6.10;99.90
52044;DHT22;38053;53.100;6.078;2023-11-22T11:56:20;6.10;99.90
52044;DHT22;38053;53.100;6.078;2023-11-22T11:58:48;6.10;99.90
52044;DHT22;38053;53.100;6.078;2023-11-22T12:01:17;6.10;99.90
52044;DHT22;38053;53.100;6.078;2023-11-22T12:03:46;6.10;99.90
52044;DHT22;38053;53.100;6.078;2023-11-22T12:06:16;6.10;99.90
52044;DHT22;38053;53.100;6.078;2023-11-22T12:08:42;6.00;99.90
52044;DHT22;38053;53.100;6.078;2023-11-22T12:11:08;5.90;99.90
52044;DHT22;38053;53.100;6.078;2023-11-22T12:13:36;5.90;99.90
52044;DHT22;38053;53.100;6.078;2023-11-22T12:16:09;5.80;99.90
52044;DHT22;38053;53.100;6.078;2023-11-22T12:18:49;5.80;99.90
52044;DHT22;38053;53.100;6.078;2023-11-22T12:21:16;5.70;99.90
52044;DHT22;38053;53.100;6.078;2023-11-22T12:23:44;5.70;99.90
52044;DHT22;38053;53.100;6.078;2023-11-22T12:26:15;5.70;99.90
52044;DHT22;38053;53.100;6.078;2023-11-22T12:28:41;5.70;99.90
52044;DHT22;38053;53.100;6.078;2023-11-22T12:31:12;5.60;99.90
52044;DHT22;38053;53.100;6.078;2023-11-22T12:33:40;5.60;99.90
52044;DHT22;38053;53.100;6.078;2023-11-22T12:36:07;5.60;99.90
52044;DHT22;38053;53.100;6.078;2023-11-22T12:38:35;5.60;99.90
52044;DHT22;38053;53.100;6.078;2023-11-22T12:41:01;5.60;99.90
52044;DHT22;38053;53.100;6.078;2023-11-22T12:43:29;5.60;99.90
52044;DHT22;38053;53.100;6.078;2023-11-22T12:46:14;5.60;99.90
52044;DHT22;38053;53.100;6.078;2023-11-22T12:48:42;5.60;99.90
52044;DHT22;38053;53.100;6.078;2023-11-22T12:51:17;5.60;99.90
52044;DHT22;38053;53.100;6.078;2023-11-22T12:53:47;5.60;99.90
52044;DHT22;38053;53.100;6.078;2023-11-22T12:56:14;5.60;99.90
52044;DHT22;38053;53.100;6.078;2023-11-22T12:58:39;5.60;99.90
52044;DHT22;38053;53.100;6.078;2023-11-22T13:01:05;5.60;99.90
52044;DHT22;38053;53.100;6.078;2023-11-22T13:03:31;5.60;99.90
52044;DHT22;38053;53.100;6.078;2023-11-22T13:05:57;5.50;99.90
52044;DHT22;38053;53.100;6.078;2023-11-22T13:08:23;5.50;99.90
52044;DHT22;38053;53.100;6.078;2023-11-22T13:10:54;5.50;99.90
52044;DHT22;38053;53.100;6.078;2023-11-22T13:13:21;5.50;99.90
52044;DHT22;38053;53.100;6.078;2023-11-22T13:15:47;5.40;99.90
52044;DHT22;38053;53.100;6.078;2023-11-22T13:18:12;5.40;99.90
52044;DHT22;38053;53.100;6.078;2023-11-22T13:20:38;5.40;99.90
52044;DHT22;38053;53.100;6.078;2023-11-22T13:23:06;5.40;99.90
52044;DHT22;38053;53.100;6.078;2023-11-22T13:25:33;5.30;99.90
52044;DHT22;38053;53.100;6.078;2023-11-22T13:27:58;5.30;99.90
52044;DHT22;38053;53.100;6.078;2023-11-22T13:30:25;5.30;99.90
52044;DHT22;38053;53.100;6.078;2023-11-22T13:32:55;5.30;99.90
52044;DHT22;38053;53.100;6.078;2023-11-22T13:35:25;5.30;99.90
52044;DHT22;38053;53.100;6.078;2023-11-22T13:37:53;5.30;99.90
52044;DHT22;38053;53.100;6.078;2023-11-22T13:40:19;5.30;99.90
52044;DHT22;38053;53.100;6.078;2023-11-22T13:42:51;5.20;99.90
52044;DHT22;38053;53.100;6.078;2023-11-22T13:45:18;5.20;99.90
52044;DHT22;38053;53.100;6.078;2023-11-22T13:47:46;5.20;99.90
52044;DHT22;38053;53.100;6.078;2023-11-22T13:50:17;5.20;99.90
52044;DHT22;38053;53.100;6.078;2023-11-22T13:52:51;5.20;99.90
52044;DHT22;38053;53.100;6.078;2023-11-22T13:55:17;5.10;99.90
52044;DHT22;38053;53.100;6.078;2023-11-22T13:57:51;5.20;99.90
52044;DHT22;38053;53.100;6.078;2023-11-22T14:00:17;5.20;99.90
52044;DHT22;38053;53.100;6.078;2023-11-22T14:02:56;5.10;99.90
52044;DHT22;38053;53.100;6.078;2023-11-22T14:05:31;5.20;99.90
52044;DHT22;38053;53.100;6.078;2023-11-22T14:07:57;5.10;99.90
52044;DHT22;38053;53.100;6.078;2023-11-22T14:10:23;5.10;99.90
52044;DHT22;38053;53.100;6.078;2023-11-22T14:12:49;5.10;99.90
52044;DHT22;38053;53.100;6.078;2023-11-22T14:15:15;5.20;99.90
52044;DHT22;38053;53.100;6.078;2023-11-22T14:17:42;5.10;99.90
52044;DHT22;38053;53.100;6.078;2023-11-22T14:20:11;5.10;99.90
52044;DHT22;38053;53.100;6.078;2023-11-22T14:22:39;5.20;99.90
52044;DHT22;38053;53.100;6.078;2023-11-22T14:25:05;5.10;99.90
52044;DHT22;38053;53.100;6.078;2023-11-22T14:27:41;5.10;99.90
52044;DHT22;38053;53.100;6.078;2023-11-22T14:30:08;5.10;99.90
52044;DHT22;38053;53.100;6.078;2023-11-22T14:32:35;5.20;99.90
52044;DHT22;38053;53.100;6.078;2023-11-22T14:35:05;5.20;99.90
52044;DHT22;38053;53.100;6.078;2023-11-22T14:37:31;5.20;99.90
52044;DHT22;38053;53.100;6.078;2023-11-22T14:39:57;5.10;99.90
52044;DHT22;38053;53.100;6.078;2023-11-22T14:42:23;5.20;99.90
52044;DHT22;38053;53.100;6.078;2023-11-22T14:44:51;5.20;99.90
52044;DHT22;38053;53.100;6.078;2023-11-22T14:47:17;5.20;99.90
52044;DHT22;38053;53.100;6.078;2023-11-22T14:49:50;5.20;99.90
52044;DHT22;38053;53.100;6.078;2023-11-22T14:52:16;5.20;99.90
52044;DHT22;38053;53.100;6.078;2023-11-22T14:54:44;5.20;99.90
52044;DHT22;38053;53.100;6.078;2023-11-22T14:57:11;5.20;99.90
52044;DHT22;38053;53.100;6.078;2023-11-22T14:59:41;5.20;99.90
52044;DHT22;38053;53.100;6.078;2023-11-22T15:02:07;5.20;99.90
52044;DHT22;38053;53.100;6.078;2023-11-22T15:04:39;5.20;99.90
52044;DHT22;38053;53.100;6.078;2023-11-22T15:07:05;5.20;99.90
52044;DHT22;38053;53.100;6.078;2023-11-22T15:09:32;5.20;99.90
52044;DHT22;38053;53.100;6.078;2023-11-22T15:12:01;5.20;99.90
52044;DHT22;38053;53.100;6.078;2023-11-22T15:14:33;5.20;99.90
52044;DHT22;38053;53.100;6.078;2023-11-22T15:17:02;5.20;99.90
52044;DHT22;38053;53.100;6.078;2023-11-22T15:19:30;5.20;99.90
52044;DHT22;38053;53.100;6.078;2023-11-22T15:21:56;5.20;99.90
52044;DHT22;38053;53.100;6.078;2023-11-22T15:24:22;5.20;99.90
52044;DHT22;38053;53.100;6.078;2023-11-22T15:26:47;5.20;99.90
52044;DHT22;38053;53.100;6.078;2023-11-22T15:29:13;5.20;99.90
52044;DHT22;38053;53.100;6.078;2023-11-22T15:31:41;5.20;99.90
52044;DHT22;38053;53.100;6.078;2023-11-22T15:34:07;5.20;99.90
52044;DHT22;38053;53.100;6.078;2023-11-22T15:36:34;5.20;99.90
52044;DHT22;38053;53.100;6.078;2023-11-22T15:39:00;5.20;99.90
52044;DHT22;38053;53.100;6.078;2023-11-22T15:41:26;5.20;99.90
52044;DHT22;38053;53.100;6.078;2023-11-22T15:43:52;5.20;99.90